Winborn, Mississippi
Current Conditions -  °F | °C
As of 7:35 AM on Monday 22 Dec 2014 (Local Time) from KUOX Reporting Station
Haze Haze  
Wind Chill: 44°   Ceiling: 300
Heat Index: 48°   Visibility: 1mi
Dew Point: 48°   Wind: 9mph
Humidity: 100%   Direction: 150°SSE
Pressure: 29.86"   Gusts: NA
Location:  34.5725°N, 89.3417°W
Report Text: KUOX 221335Z AUTO 15008KT 1SM BR OVC003 09/09 A2986 RMK AO2 PWINO PNO
Loading
Personal Weather Stations






























Interactive Weather Map New forecast layout! Learn more

10-Day Weather Forecast

Advertisements
Track Severe Weather on mobile